createdAt,value
2019-04-27T00:01:33.619Z,60.17
2019-04-27T00:04:21.027Z,60.02
2019-04-27T00:06:51.352Z,60.33
2019-04-27T00:09:43.226Z,60.35
2019-04-27T00:12:10.463Z,60.25
2019-04-27T00:14:40.115Z,60.43
2019-04-27T00:17:43.551Z,60.44
2019-04-27T00:20:24.723Z,60.38
2019-04-27T00:23:19.882Z,60.98
2019-04-27T00:25:49.738Z,61.55
2019-04-27T00:28:19.269Z,61.71
2019-04-27T00:30:48.852Z,62.09
2019-04-27T00:33:18.633Z,62.22
2019-04-27T00:35:54.002Z,62.17
2019-04-27T00:38:29.113Z,62.19
2019-04-27T00:41:03.252Z,62.18
2019-04-27T00:43:32.887Z,62.23
2019-04-27T00:46:04.034Z,62.06
2019-04-27T00:48:37.576Z,62.06
2019-04-27T00:51:07.317Z,62.10
2019-04-27T00:53:39.328Z,62.17
2019-04-27T00:56:26.506Z,62.37
2019-04-27T00:59:13.787Z,62.22
2019-04-27T01:01:50.700Z,62.34
2019-04-27T01:04:25.299Z,62.55
2019-04-27T01:06:57.040Z,62.52
2019-04-27T01:09:27.115Z,62.59
2019-04-27T01:11:56.921Z,62.58
2019-04-27T01:14:26.807Z,62.58
2019-04-27T01:16:56.405Z,62.54
2019-04-27T01:19:26.066Z,62.48
2019-04-27T01:21:55.847Z,62.49
2019-04-27T01:24:25.964Z,62.93
2019-04-27T01:27:13.048Z,63.60
2019-04-27T01:29:42.923Z,63.75
2019-04-27T01:32:14.388Z,63.44
2019-04-27T01:34:44.190Z,63.12
2019-04-27T01:37:13.651Z,62.98
2019-04-27T01:39:43.189Z,63.08
2019-04-27T01:42:13.041Z,63.16
2019-04-27T01:44:42.856Z,63.26
2019-04-27T01:47:12.436Z,63.26
2019-04-27T01:49:41.930Z,63.40
2019-04-27T01:52:12.019Z,63.48
2019-04-27T01:54:41.668Z,63.69
2019-04-27T01:57:11.623Z,63.80
2019-04-27T01:59:41.313Z,63.81
2019-04-27T02:02:26.136Z,63.94
2019-04-27T02:05:13.220Z,64.17
2019-04-27T02:07:43.973Z,64.01
2019-04-27T02:10:14.198Z,64.03
2019-04-27T02:12:44.286Z,64.24
2019-04-27T02:15:14.162Z,64.58
2019-04-27T02:17:43.787Z,64.71
2019-04-27T02:20:13.669Z,64.84
2019-04-27T02:22:43.686Z,64.92
2019-04-27T02:25:13.559Z,65.03
2019-04-27T02:27:49.091Z,65.09
2019-04-27T02:30:42.089Z,65.09
2019-04-27T02:33:34.272Z,65.18
2019-04-27T02:36:03.869Z,65.42
2019-04-27T02:38:33.457Z,65.58
2019-04-27T02:41:04.759Z,65.71
2019-04-27T02:43:42.974Z,65.77
2019-04-27T02:46:12.649Z,65.69
2019-04-27T02:48:55.993Z,65.69
2019-04-27T02:51:16.416Z,65.49
2019-04-27T02:54:00.140Z,65.58
2019-04-27T02:56:30.774Z,65.77
2019-04-27T02:59:00.570Z,65.99
2019-04-27T03:01:32.962Z,66.16
2019-04-27T03:04:02.712Z,66.01
2019-04-27T03:06:32.333Z,66.07
2019-04-27T03:09:02.034Z,66.20
2019-04-27T03:11:32.166Z,66.51
2019-04-27T03:14:32.573Z,66.41
2019-04-27T03:17:16.580Z,66.27
2019-04-27T03:19:54.117Z,66.45
2019-04-27T03:22:44.915Z,66.30
2019-04-27T03:25:34.899Z,66.32
2019-04-27T03:28:15.086Z,66.27
2019-04-27T03:30:44.917Z,66.48
2019-04-27T03:33:14.443Z,66.57
2019-04-27T03:35:44.313Z,66.84
2019-04-27T03:38:14.025Z,66.98
2019-04-27T03:40:44.018Z,67.26
2019-04-27T03:43:22.987Z,67.20
2019-04-27T03:45:52.808Z,67.04
2019-04-27T03:48:22.525Z,67.05
2019-04-27T03:51:10.149Z,67.24
2019-04-27T03:53:51.048Z,67.11
2019-04-27T03:56:25.735Z,67.35
2019-04-27T03:58:59.890Z,67.16
2019-04-27T04:01:30.279Z,67.23
2019-04-27T04:04:00.144Z,67.43
2019-04-27T04:06:29.831Z,67.53
2019-04-27T04:09:00.381Z,67.43
2019-04-27T04:11:39.722Z,67.41
2019-04-27T04:14:13.571Z,67.25
2019-04-27T04:17:01.784Z,67.12
2019-04-27T04:19:31.613Z,67.36
2019-04-27T04:22:00.585Z,67.56
2019-04-27T04:24:31.803Z,67.52
2019-04-27T04:27:01.730Z,67.60
2019-04-27T04:29:31.222Z,67.41
2019-04-27T04:32:00.798Z,67.27
2019-04-27T04:34:30.720Z,67.07
2019-04-27T04:37:00.798Z,66.89
2019-04-27T04:39:30.792Z,66.88
2019-04-27T04:42:19.859Z,66.80
2019-04-27T04:45:17.072Z,66.79
2019-04-27T04:48:01.532Z,66.65
2019-04-27T04:50:31.201Z,66.81
2019-04-27T04:53:00.813Z,66.53
2019-04-27T04:55:30.882Z,66.22
2019-04-27T04:58:00.578Z,66.34
2019-04-27T05:00:30.875Z,66.59
2019-04-27T05:03:00.890Z,66.45
2019-04-27T05:05:30.636Z,66.53
2019-04-27T05:08:00.890Z,66.46
2019-04-27T05:10:31.284Z,66.30
2019-04-27T05:13:00.931Z,66.25
2019-04-27T05:15:30.823Z,66.29
2019-04-27T05:18:00.502Z,66.30
2019-04-27T05:20:45.367Z,66.30
2019-04-27T05:23:14.963Z,66.25
2019-04-27T05:25:44.494Z,66.14
2019-04-27T05:28:14.230Z,66.25
2019-04-27T05:30:43.904Z,66.16
2019-04-27T05:33:13.649Z,65.91
2019-04-27T05:35:43.405Z,65.88
2019-04-27T05:38:13.618Z,65.90
2019-04-27T05:40:43.521Z,66.04
2019-04-27T05:43:14.857Z,65.99
2019-04-27T05:46:51.306Z,66.02
2019-04-27T05:49:44.441Z,66.01
2019-04-27T05:52:29.487Z,66.08
2019-04-27T05:55:00.221Z,66.00
2019-04-27T05:57:31.347Z,66.08
2019-04-27T06:00:02.490Z,66.16
2019-04-27T06:02:32.705Z,66.33
2019-04-27T06:05:02.249Z,66.19
2019-04-27T06:07:32.167Z,66.17
2019-04-27T06:10:01.864Z,66.25
2019-04-27T06:12:31.971Z,66.35
2019-04-27T06:15:01.953Z,66.25
2019-04-27T06:17:31.880Z,66.12
2019-04-27T06:20:02.018Z,66.02
2019-04-27T06:22:31.584Z,65.98
2019-04-27T06:25:01.326Z,65.95
2019-04-27T06:27:31.164Z,65.98
2019-04-27T06:30:04.716Z,65.88
2019-04-27T06:32:32.678Z,65.88
2019-04-27T06:35:02.234Z,65.63
2019-04-27T06:37:31.857Z,65.73
2019-04-27T06:40:01.734Z,65.94
2019-04-27T06:42:31.750Z,66.10
2019-04-27T06:45:01.299Z,65.98
2019-04-27T06:47:31.075Z,65.84
2019-04-27T06:50:00.661Z,65.85
2019-04-27T06:52:30.733Z,65.71
2019-04-27T06:55:00.691Z,65.54
2019-04-27T06:57:30.915Z,65.23
2019-04-27T07:00:00.552Z,65.32
2019-04-27T07:02:30.573Z,65.00
2019-04-27T07:05:00.713Z,64.75
2019-04-27T07:07:30.756Z,64.54
2019-04-27T07:10:00.552Z,64.21
2019-04-27T07:12:30.462Z,63.99
2019-04-27T07:15:00.740Z,63.91
2019-04-27T07:17:31.318Z,63.73
2019-04-27T07:20:01.249Z,63.59
2019-04-27T07:22:30.843Z,63.48
2019-04-27T07:25:00.568Z,63.47
2019-04-27T07:27:30.562Z,63.35
2019-04-27T07:30:01.717Z,63.27
2019-04-27T07:32:31.829Z,63.18
2019-04-27T07:35:01.438Z,63.29
2019-04-27T07:37:31.201Z,63.19
2019-04-27T07:40:00.905Z,63.18
2019-04-27T07:42:32.255Z,63.54
2019-04-27T07:45:11.379Z,63.23
2019-04-27T07:47:44.576Z,63.19
2019-04-27T07:50:14.573Z,62.95
2019-04-27T07:52:44.707Z,62.95
2019-04-27T07:55:14.252Z,63.16
2019-04-27T07:57:43.873Z,63.23
2019-04-27T08:00:14.789Z,63.11
2019-04-27T08:02:44.730Z,63.01
2019-04-27T08:05:14.822Z,63.01
2019-04-27T08:07:44.430Z,62.89
2019-04-27T08:10:14.740Z,62.72
2019-04-27T08:12:47.615Z,62.54
2019-04-27T08:15:18.905Z,62.48
2019-04-27T08:17:49.219Z,62.25
2019-04-27T08:20:21.116Z,62.36
2019-04-27T08:22:50.646Z,62.43
2019-04-27T08:25:22.378Z,62.36
2019-04-27T08:28:00.286Z,62.13
2019-04-27T08:30:51.742Z,61.92
2019-04-27T08:33:21.485Z,61.77
2019-04-27T08:35:51.045Z,61.63
2019-04-27T08:38:20.812Z,61.41
2019-04-27T08:40:50.362Z,61.08
2019-04-27T08:43:20.023Z,61.15
2019-04-27T08:45:50.162Z,61.16
2019-04-27T08:48:33.342Z,61.02
2019-04-27T08:50:51.367Z,61.00
2019-04-27T08:53:21.072Z,61.81
2019-04-27T08:55:52.755Z,62.66
2019-04-27T08:58:22.363Z,63.31
2019-04-27T09:00:52.228Z,64.25
2019-04-27T09:03:22.141Z,65.22
2019-04-27T09:05:52.169Z,65.31
2019-04-27T09:08:44.053Z,66.23
2019-04-27T09:11:24.428Z,66.21
2019-04-27T09:14:09.985Z,66.67
2019-04-27T09:16:59.556Z,67.38
2019-04-27T09:19:29.133Z,67.63
2019-04-27T09:22:13.443Z,67.98
2019-04-27T09:24:36.655Z,68.25
2019-04-27T09:27:09.585Z,68.26
2019-04-27T09:29:39.711Z,68.13
2019-04-27T09:32:09.533Z,67.99
2019-04-27T09:34:39.407Z,68.09
2019-04-27T09:37:09.197Z,68.06
2019-04-27T09:39:39.318Z,68.14
2019-04-27T09:42:09.334Z,68.69
2019-04-27T09:44:39.193Z,69.13
2019-04-27T09:47:09.598Z,69.47
2019-04-27T09:49:39.163Z,69.88
2019-04-27T09:52:08.880Z,70.24
2019-04-27T09:54:38.689Z,70.20
2019-04-27T09:57:08.657Z,70.07
2019-04-27T09:59:39.766Z,70.02
2019-04-27T10:02:10.122Z,70.02
2019-04-27T10:04:39.706Z,70.07
2019-04-27T10:07:10.673Z,70.28
2019-04-27T10:09:40.438Z,70.77
2019-04-27T10:12:10.273Z,70.81
2019-04-27T10:14:40.246Z,70.77
2019-04-27T10:17:09.987Z,70.71
2019-04-27T10:19:39.734Z,71.00
2019-04-27T10:22:09.618Z,71.09
2019-04-27T10:24:39.363Z,71.43
2019-04-27T10:27:09.606Z,72.30
2019-04-27T10:29:39.328Z,74.52
2019-04-27T10:32:10.003Z,74.32
2019-04-27T10:34:41.647Z,74.20
2019-04-27T10:37:11.553Z,74.22
2019-04-27T10:39:41.102Z,74.49
2019-04-27T10:42:11.060Z,75.13
2019-04-27T10:44:40.751Z,75.59
2019-04-27T10:47:11.093Z,75.76
2019-04-27T10:49:40.813Z,75.03
2019-04-27T10:52:11.831Z,77.16
2019-04-27T10:54:41.440Z,77.73
2019-04-27T10:57:11.336Z,76.70
2019-04-27T10:59:40.950Z,76.59
2019-04-27T11:02:11.065Z,77.62
2019-04-27T11:04:56.626Z,78.33
2019-04-27T11:07:30.317Z,78.71
2019-04-27T11:10:03.040Z,78.94
2019-04-27T11:12:33.295Z,79.16
2019-04-27T11:15:03.558Z,79.17
2019-04-27T11:17:37.053Z,79.85
2019-04-27T11:20:07.478Z,80.69
2019-04-27T11:22:37.313Z,81.39
2019-04-27T11:25:08.338Z,81.98
2019-04-27T11:27:38.977Z,81.20
2019-04-27T11:30:09.460Z,81.04
2019-04-27T11:32:43.721Z,80.86
2019-04-27T11:35:39.343Z,80.87
2019-04-27T11:38:08.458Z,80.76
2019-04-27T11:40:38.441Z,80.72
2019-04-27T11:43:10.345Z,81.31
2019-04-27T11:45:40.095Z,80.92
2019-04-27T11:48:10.136Z,82.19
2019-04-27T11:50:39.989Z,82.60
2019-04-27T11:53:19.815Z,83.19
2019-04-27T11:55:41.486Z,82.74
2019-04-27T11:58:11.548Z,82.25
2019-04-27T12:00:41.377Z,82.38
2019-04-27T12:03:11.916Z,81.98
2019-04-27T12:05:41.639Z,82.24
2019-04-27T12:08:11.590Z,82.26
2019-04-27T12:10:41.578Z,81.49
2019-04-27T12:13:11.463Z,81.69
2019-04-27T12:15:41.296Z,81.85
2019-04-27T12:18:11.373Z,81.21
2019-04-27T12:20:41.265Z,81.61
2019-04-27T12:23:11.005Z,81.59
2019-04-27T12:25:41.361Z,81.18
2019-04-27T12:28:20.553Z,81.21
2019-04-27T12:31:00.350Z,81.93
2019-04-27T12:33:31.530Z,82.44
2019-04-27T12:36:01.170Z,82.75
2019-04-27T12:38:30.800Z,82.88
2019-04-27T12:41:00.595Z,82.55
2019-04-27T12:43:30.350Z,82.62
2019-04-27T12:45:59.920Z,82.91
2019-04-27T12:48:30.869Z,83.83
2019-04-27T12:51:00.801Z,83.67
2019-04-27T12:53:48.616Z,83.69
2019-04-27T12:56:29.956Z,84.06
2019-04-27T12:59:05.388Z,83.84
2019-04-27T13:01:36.104Z,83.27
2019-04-27T13:04:06.210Z,83.87
2019-04-27T13:06:35.903Z,84.25
2019-04-27T13:09:07.735Z,83.91
2019-04-27T13:11:37.359Z,84.06
2019-04-27T13:14:07.311Z,83.98
2019-04-27T13:16:37.798Z,84.30
2019-04-27T13:19:08.929Z,84.12
2019-04-27T13:21:39.529Z,84.05
2019-04-27T13:24:09.770Z,84.42
2019-04-27T13:26:39.657Z,84.49
2019-04-27T13:29:09.322Z,84.37
2019-04-27T13:31:39.332Z,84.83
2019-04-27T13:34:09.379Z,84.18
2019-04-27T13:36:39.705Z,84.31
2019-04-27T13:39:09.683Z,84.08
2019-04-27T13:41:39.396Z,84.06
2019-04-27T13:44:09.001Z,84.22
2019-04-27T13:46:56.347Z,84.19
2019-04-27T13:49:51.136Z,84.32
2019-04-27T13:52:23.284Z,84.79
2019-04-27T13:54:52.959Z,84.38
2019-04-27T13:57:22.804Z,84.47
2019-04-27T13:59:52.563Z,84.53
2019-04-27T14:02:24.198Z,84.28
2019-04-27T14:04:54.510Z,84.00
2019-04-27T14:07:26.618Z,83.62
2019-04-27T14:09:56.327Z,84.09
2019-04-27T14:12:25.880Z,83.99
2019-04-27T14:14:55.637Z,83.71
2019-04-27T14:17:25.281Z,83.86
2019-04-27T14:19:55.608Z,83.76
2019-04-27T14:22:25.455Z,83.40
2019-04-27T14:24:55.110Z,83.83
2019-04-27T14:27:31.064Z,83.75
2019-04-27T14:30:00.829Z,83.03
2019-04-27T14:32:30.444Z,83.04
2019-04-27T14:35:00.298Z,83.71
2019-04-27T14:37:30.383Z,83.90
2019-04-27T14:40:00.220Z,84.12
2019-04-27T14:42:29.787Z,84.41
2019-04-27T14:44:59.491Z,84.47
2019-04-27T14:47:29.572Z,84.27
2019-04-27T14:49:59.463Z,83.57
2019-04-27T14:52:29.306Z,83.88
2019-04-27T14:54:59.209Z,83.57
2019-04-27T14:57:29.236Z,83.65
2019-04-27T15:00:00.202Z,83.31
2019-04-27T15:02:30.780Z,83.26
2019-04-27T15:05:00.466Z,83.15
2019-04-27T15:07:30.529Z,83.06
2019-04-27T15:10:00.400Z,82.78
2019-04-27T15:12:32.354Z,82.53
2019-04-27T15:15:01.813Z,82.36
2019-04-27T15:17:31.630Z,82.49
2019-04-27T15:20:06.601Z,82.97
2019-04-27T15:22:36.263Z,83.00
2019-04-27T15:25:12.331Z,82.85
2019-04-27T15:27:43.097Z,83.04
2019-04-27T15:30:18.872Z,83.06
2019-04-27T15:33:22.889Z,83.00
2019-04-27T15:36:00.094Z,82.83
2019-04-27T15:38:33.571Z,82.74
2019-04-27T15:41:13.803Z,82.89
2019-04-27T15:43:44.163Z,82.94
2019-04-27T15:46:14.200Z,83.02
2019-04-27T15:48:48.368Z,83.00
2019-04-27T15:51:20.991Z,83.00
2019-04-27T15:53:52.857Z,82.60
2019-04-27T15:56:22.120Z,83.24
2019-04-27T15:58:51.785Z,82.88
2019-04-27T16:01:22.635Z,82.68
2019-04-27T16:03:52.488Z,83.18
2019-04-27T16:06:22.339Z,83.34
2019-04-27T16:08:52.691Z,83.33
2019-04-27T16:11:22.505Z,83.35
2019-04-27T16:13:52.917Z,83.64
2019-04-27T16:16:24.602Z,83.52
2019-04-27T16:18:57.871Z,83.75
2019-04-27T16:21:31.554Z,83.75
2019-04-27T16:24:03.799Z,83.99
2019-04-27T16:26:36.127Z,84.27
2019-04-27T16:29:06.101Z,83.86
2019-04-27T16:31:36.704Z,84.21
2019-04-27T16:34:08.312Z,84.52
2019-04-27T16:36:43.588Z,84.62
2019-04-27T16:39:11.102Z,84.65
2019-04-27T16:41:44.506Z,84.89
2019-04-27T16:44:15.522Z,84.31
2019-04-27T16:46:45.755Z,84.40
2019-04-27T16:49:15.663Z,84.78
2019-04-27T16:51:49.246Z,84.77
2019-04-27T16:54:21.357Z,84.83
2019-04-27T16:56:58.283Z,85.48
2019-04-27T16:59:42.641Z,85.48
2019-04-27T17:01:55.310Z,85.60
2019-04-27T17:04:25.026Z,85.76
2019-04-27T17:06:55.013Z,85.54
2019-04-27T17:09:24.894Z,85.45
2019-04-27T17:11:54.895Z,85.28
2019-04-27T17:14:35.232Z,85.15
2019-04-27T17:17:20.905Z,85.45
2019-04-27T17:19:53.642Z,85.30
2019-04-27T17:22:24.067Z,85.51
2019-04-27T17:24:53.858Z,85.74
2019-04-27T17:27:31.948Z,85.41
2019-04-27T17:30:02.225Z,85.49
2019-04-27T17:32:41.746Z,85.65
2019-04-27T17:35:14.769Z,85.50
2019-04-27T17:37:42.956Z,85.56
2019-04-27T17:40:15.513Z,85.66
2019-04-27T17:42:45.330Z,85.95
2019-04-27T17:45:15.595Z,86.28
2019-04-27T17:47:45.546Z,86.12
2019-04-27T17:50:19.983Z,85.82
2019-04-27T17:52:55.015Z,85.87
2019-04-27T17:55:24.302Z,85.57
2019-04-27T17:58:00.545Z,85.69
2019-04-27T18:00:32.975Z,85.82
2019-04-27T18:03:00.655Z,85.63
2019-04-27T18:05:30.633Z,85.68
2019-04-27T18:08:00.931Z,86.10
2019-04-27T18:10:32.020Z,86.29
2019-04-27T18:13:02.031Z,86.10
2019-04-27T18:15:32.742Z,86.44
2019-04-27T18:18:11.616Z,86.37
2019-04-27T18:20:44.032Z,86.22
2019-04-27T18:23:18.556Z,86.00
2019-04-27T18:25:54.076Z,85.76
2019-04-27T18:28:28.287Z,86.01
2019-04-27T18:31:16.456Z,86.04
2019-04-27T18:33:48.121Z,86.24
2019-04-27T18:36:19.414Z,86.19
2019-04-27T18:38:50.166Z,85.65
2019-04-27T18:41:22.441Z,85.98
2019-04-27T18:43:55.203Z,86.02
2019-04-27T18:46:28.193Z,86.16
2019-04-27T18:49:18.169Z,86.09
2019-04-27T18:52:06.535Z,85.79
2019-04-27T18:54:41.871Z,86.33
2019-04-27T18:57:10.796Z,86.17
2019-04-27T18:59:43.157Z,86.01
2019-04-27T19:02:12.892Z,85.96
2019-04-27T19:04:42.828Z,85.88
2019-04-27T19:07:12.951Z,85.61
2019-04-27T19:09:43.393Z,85.20
2019-04-27T19:12:14.237Z,85.31
2019-04-27T19:14:47.768Z,85.79
2019-04-27T19:17:19.841Z,85.49
2019-04-27T19:19:51.138Z,85.89
2019-04-27T19:22:21.456Z,86.38
2019-04-27T19:24:51.830Z,86.81
2019-04-27T19:27:44.128Z,86.98
2019-04-27T19:30:23.850Z,87.44
2019-04-27T19:32:55.121Z,87.62
2019-04-27T19:35:25.956Z,87.50
2019-04-27T19:37:56.556Z,87.08
2019-04-27T19:40:26.683Z,86.71
2019-04-27T19:42:58.727Z,86.77
2019-04-27T19:45:31.867Z,86.91
2019-04-27T19:48:02.574Z,86.81
2019-04-27T19:50:32.838Z,86.79
2019-04-27T19:53:03.042Z,87.05
2019-04-27T19:55:38.954Z,87.00
2019-04-27T19:58:09.365Z,87.21
2019-04-27T20:01:11.131Z,87.48
2019-04-27T20:03:38.875Z,87.74
2019-04-27T20:06:10.432Z,86.86
2019-04-27T20:08:42.580Z,86.48
2019-04-27T20:11:12.399Z,86.72
2019-04-27T20:13:42.386Z,87.20
2019-04-27T20:16:12.382Z,87.48
2019-04-27T20:18:43.329Z,87.35
2019-04-27T20:21:13.316Z,87.59
2019-04-27T20:23:43.156Z,87.60
2019-04-27T20:26:12.959Z,87.70
2019-04-27T20:28:43.479Z,87.04
2019-04-27T20:31:13.491Z,86.98
2019-04-27T20:33:43.433Z,87.49
2019-04-27T20:36:13.152Z,87.56
2019-04-27T20:38:43.800Z,87.24
2019-04-27T20:41:13.902Z,86.83
2019-04-27T20:43:44.228Z,86.96
2019-04-27T20:46:14.432Z,87.55
2019-04-27T20:48:44.204Z,87.79
2019-04-27T20:51:14.399Z,87.30
2019-04-27T20:53:51.764Z,87.15
2019-04-27T20:56:21.953Z,87.11
2019-04-27T20:58:51.870Z,87.17
2019-04-27T21:01:21.774Z,87.15
2019-04-27T21:03:55.469Z,87.61
2019-04-27T21:06:42.625Z,88.03
2019-04-27T21:09:16.843Z,88.56
2019-04-27T21:11:49.374Z,88.49
2019-04-27T21:14:21.720Z,88.39
2019-04-27T21:16:56.806Z,88.58
2019-04-27T21:19:26.406Z,88.60
2019-04-27T21:21:58.683Z,88.33
2019-04-27T21:24:28.459Z,88.47
2019-04-27T21:26:59.751Z,88.17
2019-04-27T21:29:31.175Z,88.21
2019-04-27T21:32:01.226Z,88.36
2019-04-27T21:34:31.214Z,88.53
2019-04-27T21:37:01.142Z,88.69
2019-04-27T21:39:32.365Z,88.74
2019-04-27T21:42:03.410Z,88.51
2019-04-27T21:44:33.893Z,88.69
2019-04-27T21:47:04.512Z,88.53
2019-04-27T21:49:37.257Z,88.54
2019-04-27T21:52:14.626Z,88.53
2019-04-27T21:54:44.972Z,88.68
2019-04-27T21:57:15.133Z,88.51
2019-04-27T21:59:44.895Z,88.30
2019-04-27T22:02:14.621Z,88.67
2019-04-27T22:04:44.612Z,89.04
2019-04-27T22:07:14.451Z,89.07
2019-04-27T22:09:44.425Z,89.44
2019-04-27T22:12:14.941Z,89.55
2019-04-27T22:14:45.711Z,89.67
2019-04-27T22:17:16.701Z,89.77
2019-04-27T22:19:46.560Z,89.78
2019-04-27T22:22:24.128Z,89.78
2019-04-27T22:25:04.900Z,89.58
2019-04-27T22:27:35.491Z,89.43
2019-04-27T22:30:07.576Z,89.32
2019-04-27T22:32:38.110Z,89.28
2019-04-27T22:35:08.374Z,89.23
2019-04-27T22:37:41.351Z,89.13
2019-04-27T22:40:38.484Z,89.03
2019-04-27T22:43:41.198Z,89.09
2019-04-27T22:46:13.839Z,89.01
2019-04-27T22:48:46.541Z,89.05
2019-04-27T22:51:17.559Z,89.00
2019-04-27T22:53:48.002Z,88.83
2019-04-27T22:56:22.285Z,88.81
2019-04-27T22:59:03.631Z,88.91
2019-04-27T23:01:53.828Z,89.16
2019-04-27T23:04:32.429Z,89.16
2019-04-27T23:07:03.190Z,89.35
2019-04-27T23:09:33.774Z,89.34
2019-04-27T23:12:04.552Z,89.34
2019-04-27T23:14:41.373Z,89.64
2019-04-27T23:17:36.073Z,89.69
2019-04-27T23:20:06.438Z,89.49
2019-04-27T23:22:36.884Z,89.41
2019-04-27T23:25:07.039Z,88.85
2019-04-27T23:27:36.718Z,88.85
2019-04-27T23:30:07.027Z,89.17
2019-04-27T23:32:51.321Z,89.12
2019-04-27T23:35:20.786Z,89.19
2019-04-27T23:37:50.807Z,89.22
2019-04-27T23:40:22.054Z,89.25
2019-04-27T23:42:51.920Z,89.17
2019-04-27T23:45:26.751Z,89.18
2019-04-27T23:47:56.633Z,89.20
2019-04-27T23:50:28.378Z,89.25
2019-04-27T23:53:05.807Z,89.36
2019-04-27T23:55:36.116Z,89.60
2019-04-27T23:58:10.890Z,89.73
